createdAt,value
2023-01-30T00:02:22.048Z,0.88
2023-01-30T00:07:29.980Z,0.83
2023-01-30T00:12:37.880Z,0.83
2023-01-30T00:17:45.436Z,0.83
2023-01-30T00:23:00.766Z,0.86
2023-01-30T00:28:08.981Z,0.85
2023-01-30T00:33:16.687Z,0.90
2023-01-30T00:38:25.089Z,0.90
2023-01-30T00:43:50.062Z,0.91
2023-01-30T00:48:57.735Z,0.91
2023-01-30T00:54:05.840Z,0.90
2023-01-30T00:59:13.636Z,0.88
2023-01-30T01:04:21.764Z,0.83
2023-01-30T01:09:30.060Z,0.86
2023-01-30T01:14:38.135Z,0.81
2023-01-30T01:19:46.330Z,0.77
2023-01-30T01:24:53.996Z,0.74
2023-01-30T01:30:02.497Z,0.69
2023-01-30T01:35:12.083Z,0.67
2023-01-30T01:40:40.541Z,0.64
2023-01-30T01:45:51.813Z,0.67
2023-01-30T01:51:04.891Z,0.68
2023-01-30T01:56:16.664Z,0.68
2023-01-30T02:01:24.978Z,0.68
2023-01-30T02:06:34.978Z,0.66
2023-01-30T02:11:49.930Z,0.72
2023-01-30T02:16:57.484Z,0.77
2023-01-30T02:22:34.131Z,0.80
2023-01-30T02:28:09.400Z,0.78
2023-01-30T02:33:23.406Z,0.76
2023-01-30T02:38:40.935Z,0.75
2023-01-30T02:44:00.000Z,0.74
2023-01-30T02:49:15.574Z,0.69
2023-01-30T02:54:23.143Z,0.68
2023-01-30T02:59:34.968Z,0.68
2023-01-30T03:04:59.052Z,0.68
2023-01-30T03:10:17.103Z,0.68
2023-01-30T03:15:33.477Z,0.70
2023-01-30T03:20:43.121Z,0.70
2023-01-30T03:25:51.716Z,0.72
2023-01-30T03:30:59.565Z,0.75
2023-01-30T03:36:07.870Z,0.74
2023-01-30T03:41:16.151Z,0.76
2023-01-30T03:46:24.620Z,0.77
2023-01-30T03:51:32.406Z,0.78
2023-01-30T03:56:40.209Z,0.76
2023-01-30T04:01:48.786Z,0.73
2023-01-30T04:06:57.607Z,0.70
2023-01-30T04:12:07.096Z,0.69
2023-01-30T04:17:19.091Z,0.70
2023-01-30T04:22:28.011Z,0.69
2023-01-30T04:27:36.305Z,0.66
2023-01-30T04:32:56.869Z,0.66
2023-01-30T04:38:04.515Z,0.64
2023-01-30T04:43:12.172Z,0.62
2023-01-30T04:48:50.860Z,0.59
2023-01-30T04:53:59.513Z,0.55
2023-01-30T04:59:08.383Z,0.54
2023-01-30T05:04:20.223Z,0.54
2023-01-30T05:09:28.725Z,0.54
2023-01-30T05:14:37.242Z,0.58
2023-01-30T05:19:45.519Z,0.60
2023-01-30T05:24:54.792Z,0.62
2023-01-30T05:30:02.975Z,0.62
2023-01-30T05:35:12.261Z,0.60
2023-01-30T05:40:21.266Z,0.58
2023-01-30T05:45:29.585Z,0.56
2023-01-30T05:50:37.304Z,0.51
2023-01-30T05:55:45.514Z,0.49
2023-01-30T06:00:53.975Z,0.51
2023-01-30T06:06:02.961Z,0.55
2023-01-30T06:11:12.643Z,0.55
2023-01-30T06:16:21.331Z,0.50
2023-01-30T06:21:29.673Z,0.51
2023-01-30T06:26:38.338Z,0.49
2023-01-30T06:31:45.865Z,0.47
2023-01-30T06:36:54.699Z,0.45
2023-01-30T06:42:02.047Z,0.44
2023-01-30T06:47:09.452Z,0.38
2023-01-30T06:52:18.100Z,0.34
2023-01-30T06:57:26.339Z,0.31
2023-01-30T07:02:35.689Z,0.28
2023-01-30T07:07:43.849Z,0.27
2023-01-30T07:12:52.328Z,0.25
2023-01-30T07:18:01.099Z,0.23
2023-01-30T07:23:09.588Z,0.19
2023-01-30T07:28:17.958Z,0.14
2023-01-30T07:33:25.285Z,0.11
2023-01-30T07:38:33.607Z,0.07
2023-01-30T07:43:42.400Z,0.07
2023-01-30T07:48:50.677Z,0.05
2023-01-30T07:53:59.695Z,0.04
2023-01-30T07:59:08.181Z,0.03
2023-01-30T08:04:16.003Z,0.01
2023-01-30T08:09:23.315Z,0.01
2023-01-30T08:14:31.640Z,0.00
2023-01-30T08:19:39.532Z,-0.01
2023-01-30T08:24:47.850Z,-0.00
2023-01-30T08:29:57.818Z,0.02
2023-01-30T08:35:06.374Z,0.04
2023-01-30T08:40:17.376Z,0.08
2023-01-30T08:45:25.912Z,0.12
2023-01-30T08:50:35.269Z,0.16
2023-01-30T08:55:45.665Z,0.18
2023-01-30T09:00:54.209Z,0.22
2023-01-30T09:06:02.655Z,0.24
2023-01-30T09:11:12.565Z,0.26
2023-01-30T09:16:20.003Z,0.28
2023-01-30T09:21:31.012Z,0.30
2023-01-30T09:26:45.730Z,0.30
2023-01-30T09:31:54.324Z,0.31
2023-01-30T09:37:05.016Z,0.31
2023-01-30T09:42:37.207Z,0.31
2023-01-30T09:47:55.641Z,0.31
2023-01-30T09:53:07.978Z,0.33
2023-01-30T09:58:17.750Z,0.34
2023-01-30T10:03:38.140Z,0.36
2023-01-30T10:09:01.815Z,0.38
2023-01-30T10:14:23.982Z,0.39
2023-01-30T10:20:08.661Z,0.40
2023-01-30T10:25:32.163Z,0.42
2023-01-30T10:30:40.881Z,0.43
2023-01-30T10:36:02.242Z,0.44
2023-01-30T10:41:21.291Z,0.45
2023-01-30T10:46:53.079Z,0.46
2023-01-30T10:52:09.591Z,0.47
2023-01-30T10:57:26.487Z,0.48
2023-01-30T11:02:42.916Z,0.50
2023-01-30T11:07:53.108Z,0.53
2023-01-30T11:13:03.324Z,0.54
2023-01-30T11:23:52.293Z,0.55
2023-01-30T11:29:01.220Z,0.55
2023-01-30T11:34:18.078Z,0.58
2023-01-30T11:39:35.135Z,0.58
2023-01-30T11:44:44.851Z,0.59
2023-01-30T11:50:04.941Z,0.60
2023-01-30T11:55:24.014Z,0.62
2023-01-30T12:00:42.397Z,0.64
2023-01-30T12:05:50.625Z,0.66
2023-01-30T12:11:02.684Z,0.67
2023-01-30T12:16:21.602Z,0.68
2023-01-30T12:21:45.155Z,0.69
2023-01-30T12:26:57.722Z,0.67
2023-01-30T12:32:13.725Z,0.67
2023-01-30T12:37:38.725Z,0.69
2023-01-30T12:43:15.049Z,0.71
2023-01-30T12:48:48.161Z,0.75
2023-01-30T12:54:07.265Z,0.79
2023-01-30T12:59:21.569Z,0.85
2023-01-30T13:04:56.276Z,0.89
2023-01-30T13:10:21.260Z,0.96
2023-01-30T13:15:35.028Z,1.01
2023-01-30T13:21:00.322Z,1.04
2023-01-30T13:26:13.255Z,1.05
2023-01-30T13:31:24.900Z,1.05
2023-01-30T13:36:42.397Z,1.05
2023-01-30T13:42:08.645Z,1.05
2023-01-30T13:47:27.646Z,1.05
2023-01-30T13:52:43.660Z,1.05
2023-01-30T13:57:58.269Z,1.08
2023-01-30T14:03:29.540Z,1.12
2023-01-30T14:08:52.628Z,1.16
2023-01-30T14:14:04.380Z,1.20
2023-01-30T14:19:32.335Z,1.22
2023-01-30T14:24:41.086Z,1.24
2023-01-30T14:30:02.260Z,1.29
2023-01-30T14:35:29.827Z,1.33
2023-01-30T14:40:44.439Z,1.36
2023-01-30T14:45:55.428Z,1.41
2023-01-30T14:51:24.422Z,1.44
2023-01-30T14:56:47.726Z,1.48
2023-01-30T15:02:10.077Z,1.52
2023-01-30T15:07:20.031Z,1.56
2023-01-30T15:12:53.535Z,1.58
2023-01-30T15:18:18.770Z,1.57
2023-01-30T15:23:48.496Z,1.57
2023-01-30T15:29:13.931Z,1.56
2023-01-30T15:34:26.375Z,1.56
2023-01-30T15:39:35.534Z,1.57
2023-01-30T15:45:03.701Z,1.59
2023-01-30T15:50:13.813Z,1.61
2023-01-30T15:55:26.111Z,1.65
2023-01-30T16:00:38.099Z,1.68
2023-01-30T16:05:52.816Z,1.72
2023-01-30T16:11:02.714Z,1.75
2023-01-30T16:16:18.070Z,1.77
2023-01-30T16:21:31.147Z,1.80
2023-01-30T16:26:43.907Z,1.82
2023-01-30T16:31:54.493Z,1.83
2023-01-30T16:37:08.922Z,1.82
2023-01-30T16:42:28.541Z,1.82
2023-01-30T16:47:38.193Z,1.81
2023-01-30T16:52:55.224Z,1.80
2023-01-30T16:58:07.320Z,1.80
2023-01-30T17:03:30.779Z,1.80
2023-01-30T17:08:54.713Z,1.80
2023-01-30T17:14:24.716Z,1.78
2023-01-30T17:19:33.763Z,1.75
2023-01-30T17:24:43.589Z,1.74
2023-01-30T17:29:51.570Z,1.74
2023-01-30T17:34:59.993Z,1.74
2023-01-30T17:40:14.080Z,1.74
2023-01-30T17:45:21.805Z,1.75
2023-01-30T17:50:30.490Z,1.76
2023-01-30T17:55:38.962Z,1.76
2023-01-30T18:00:46.568Z,1.76
2023-01-30T18:05:55.530Z,1.77
2023-01-30T18:11:04.533Z,1.79
2023-01-30T18:16:22.950Z,1.82
2023-01-30T18:21:30.859Z,1.84
2023-01-30T18:26:39.040Z,1.85
2023-01-30T18:31:47.190Z,1.86
2023-01-30T18:36:55.665Z,1.85
2023-01-30T18:42:04.792Z,1.85
2023-01-30T18:47:13.074Z,1.84
2023-01-30T18:52:22.330Z,1.85
2023-01-30T18:57:31.449Z,1.87
2023-01-30T19:02:40.698Z,1.88
2023-01-30T19:07:49.731Z,1.88
2023-01-30T19:13:15.516Z,1.88
2023-01-30T19:18:23.260Z,1.89
2023-01-30T19:23:33.244Z,1.90
2023-01-30T19:28:45.049Z,1.92
2023-01-30T19:34:01.110Z,1.92
2023-01-30T19:39:12.159Z,1.94
2023-01-30T19:44:21.304Z,1.96
2023-01-30T19:49:30.559Z,1.97
2023-01-30T19:54:39.131Z,1.97
2023-01-30T19:59:48.089Z,1.99
2023-01-30T20:04:56.016Z,2.01
2023-01-30T20:10:03.375Z,2.02
2023-01-30T20:15:12.660Z,2.02
2023-01-30T20:20:21.118Z,2.04
2023-01-30T20:25:28.838Z,2.03
2023-01-30T20:30:36.366Z,2.04
2023-01-30T20:35:45.208Z,2.05
2023-01-30T20:40:54.013Z,2.05
2023-01-30T20:46:09.149Z,2.05
2023-01-30T20:51:19.459Z,2.05
2023-01-30T20:56:28.502Z,2.04
2023-01-30T21:01:36.274Z,2.05
2023-01-30T21:06:46.426Z,2.05
2023-01-30T21:11:56.661Z,2.06
2023-01-30T21:17:05.340Z,2.07
2023-01-30T21:22:13.799Z,2.07
2023-01-30T21:27:22.512Z,2.09
2023-01-30T21:32:30.660Z,2.09
2023-01-30T21:37:58.238Z,2.10
2023-01-30T21:43:16.036Z,2.10
2023-01-30T21:48:24.484Z,2.12
2023-01-30T21:53:34.093Z,2.14
2023-01-30T21:58:42.187Z,2.15
2023-01-30T22:03:50.485Z,2.15
2023-01-30T22:09:00.488Z,2.14
2023-01-30T22:14:08.495Z,2.13
2023-01-30T22:19:16.011Z,2.13
2023-01-30T22:24:24.014Z,2.11
2023-01-30T22:29:31.314Z,2.08
2023-01-30T22:34:39.357Z,2.08
2023-01-30T22:39:46.820Z,2.06
2023-01-30T22:44:55.315Z,2.06
2023-01-30T22:50:04.634Z,2.04
2023-01-30T22:55:14.180Z,2.02
2023-01-30T23:00:23.545Z,2.01
2023-01-30T23:05:31.737Z,2.01
2023-01-30T23:10:42.275Z,2.04
2023-01-30T23:15:51.185Z,2.06
2023-01-30T23:20:59.415Z,2.09
2023-01-30T23:26:07.837Z,2.10
2023-01-30T23:31:19.977Z,2.12
2023-01-30T23:36:27.096Z,2.14
2023-01-30T23:41:37.939Z,2.15
2023-01-30T23:46:46.079Z,2.16
2023-01-30T23:51:54.132Z,2.17
2023-01-30T23:57:01.632Z,2.20
